sensor_id;sensor_type;location;lat;lon;timestamp;pressure;altitude;pressure_sealevel;temperature;humidity
52693;BME280;68218;51.012;-1.648;2023-04-21T00:00:59;100715.31;;;5.27;90.74
52693;BME280;68218;51.012;-1.648;2023-04-21T00:03:25;100719.47;;;5.23;90.78
52693;BME280;68218;51.012;-1.648;2023-04-21T00:05:52;100719.09;;;5.19;90.75
52693;BME280;68218;51.012;-1.648;2023-04-21T00:08:18;100708.78;;;5.23;90.90
52693;BME280;68218;51.012;-1.648;2023-04-21T00:10:44;100705.94;;;5.18;90.96
52693;BME280;68218;51.012;-1.648;2023-04-21T00:13:11;100709.63;;;5.17;91.19
52693;BME280;68218;51.012;-1.648;2023-04-21T00:15:36;100709.44;;;5.12;91.33
52693;BME280;68218;51.012;-1.648;2023-04-21T00:18:02;100701.59;;;5.17;91.23
52693;BME280;68218;51.012;-1.648;2023-04-21T00:20:28;100702.16;;;5.25;91.11
52693;BME280;68218;51.012;-1.648;2023-04-21T00:22:57;100694.56;;;5.22;91.00
52693;BME280;68218;51.012;-1.648;2023-04-21T00:25:23;100697.19;;;5.29;90.87
52693;BME280;68218;51.012;-1.648;2023-04-21T00:27:49;100691.44;;;5.32;90.50
52693;BME280;68218;51.012;-1.648;2023-04-21T00:30:14;100679.53;;;5.28;90.58
52693;BME280;68218;51.012;-1.648;2023-04-21T00:32:40;100678.53;;;5.22;90.65
52693;BME280;68218;51.012;-1.648;2023-04-21T00:35:06;100676.72;;;5.16;91.05
52693;BME280;68218;51.012;-1.648;2023-04-21T00:37:32;100682.09;;;5.16;91.13
52693;BME280;68218;51.012;-1.648;2023-04-21T00:39:57;100679.28;;;5.04;90.88
52693;BME280;68218;51.012;-1.648;2023-04-21T00:42:24;100681.72;;;5.06;91.52
52693;BME280;68218;51.012;-1.648;2023-04-21T00:44:49;100674.91;;;5.10;91.46
52693;BME280;68218;51.012;-1.648;2023-04-21T00:47:16;100674.28;;;5.15;91.58
52693;BME280;68218;51.012;-1.648;2023-04-21T00:49:42;100671.78;;;5.20;91.32
52693;BME280;68218;51.012;-1.648;2023-04-21T00:52:08;100668.47;;;5.24;91.40
52693;BME280;68218;51.012;-1.648;2023-04-21T00:54:36;100680.59;;;5.20;90.64
52693;BME280;68218;51.012;-1.648;2023-04-21T00:57:02;100665.56;;;5.26;90.86
52693;BME280;68218;51.012;-1.648;2023-04-21T00:59:28;100669.44;;;5.30;90.92
52693;BME280;68218;51.012;-1.648;2023-04-21T01:01:53;100664.53;;;5.27;90.37
52693;BME280;68218;51.012;-1.648;2023-04-21T01:04:19;100664.91;;;5.31;90.54
52693;BME280;68218;51.012;-1.648;2023-04-21T01:06:44;100659.34;;;5.32;90.16
52693;BME280;68218;51.012;-1.648;2023-04-21T01:09:10;100653.41;;;5.30;90.11
52693;BME280;68218;51.012;-1.648;2023-04-21T01:11:37;100643.88;;;5.34;89.81
52693;BME280;68218;51.012;-1.648;2023-04-21T01:14:02;100653.81;;;5.27;90.06
52693;BME280;68218;51.012;-1.648;2023-04-21T01:16:29;100645.97;;;5.32;90.36
52693;BME280;68218;51.012;-1.648;2023-04-21T01:18:56;100650.13;;;5.28;90.23
52693;BME280;68218;51.012;-1.648;2023-04-21T01:21:23;100646.28;;;5.17;90.26
52693;BME280;68218;51.012;-1.648;2023-04-21T01:23:49;100659.16;;;5.27;90.27
52693;BME280;68218;51.012;-1.648;2023-04-21T01:26:21;100654.88;;;5.26;90.32
52693;BME280;68218;51.012;-1.648;2023-04-21T01:28:47;100654.25;;;5.24;90.35
52693;BME280;68218;51.012;-1.648;2023-04-21T01:31:15;100651.97;;;5.28;90.67
52693;BME280;68218;51.012;-1.648;2023-04-21T01:33:41;100651.75;;;5.29;90.64
52693;BME280;68218;51.012;-1.648;2023-04-21T01:36:08;100653.41;;;5.30;90.46
52693;BME280;68218;51.012;-1.648;2023-04-21T01:38:37;100648.81;;;5.37;90.38
52693;BME280;68218;51.012;-1.648;2023-04-21T01:41:03;100649.84;;;5.36;90.43
52693;BME280;68218;51.012;-1.648;2023-04-21T01:43:28;100637.50;;;5.35;90.40
52693;BME280;68218;51.012;-1.648;2023-04-21T01:45:54;100633.78;;;5.36;90.40
52693;BME280;68218;51.012;-1.648;2023-04-21T01:48:19;100643.88;;;5.34;90.85
52693;BME280;68218;51.012;-1.648;2023-04-21T01:50:45;100639.75;;;5.38;90.79
52693;BME280;68218;51.012;-1.648;2023-04-21T01:53:10;100643.19;;;5.46;90.99
52693;BME280;68218;51.012;-1.648;2023-04-21T01:55:36;100643.53;;;5.56;90.73
52693;BME280;68218;51.012;-1.648;2023-04-21T01:58:01;100649.09;;;5.54;90.47
52693;BME280;68218;51.012;-1.648;2023-04-21T02:00:27;100644.75;;;5.53;90.42
52693;BME280;68218;51.012;-1.648;2023-04-21T02:02:52;100632.75;;;5.62;90.03
52693;BME280;68218;51.012;-1.648;2023-04-21T02:05:18;100642.19;;;5.65;90.30
52693;BME280;68218;51.012;-1.648;2023-04-21T02:07:43;100631.66;;;5.70;89.92
52693;BME280;68218;51.012;-1.648;2023-04-21T02:10:09;100623.47;;;5.65;90.14
52693;BME280;68218;51.012;-1.648;2023-04-21T02:12:35;100628.53;;;5.73;89.95
52693;BME280;68218;51.012;-1.648;2023-04-21T02:15:01;100634.63;;;5.80;89.84
52693;BME280;68218;51.012;-1.648;2023-04-21T02:17:26;100621.03;;;5.82;90.22
52693;BME280;68218;51.012;-1.648;2023-04-21T02:19:52;100621.31;;;5.74;90.18
52693;BME280;68218;51.012;-1.648;2023-04-21T02:22:17;100614.94;;;5.75;90.05
52693;BME280;68218;51.012;-1.648;2023-04-21T02:24:42;100607.13;;;5.73;90.03
52693;BME280;68218;51.012;-1.648;2023-04-21T02:27:08;100609.81;;;5.73;90.61
52693;BME280;68218;51.012;-1.648;2023-04-21T02:29:33;100601.78;;;5.73;90.53
52693;BME280;68218;51.012;-1.648;2023-04-21T02:31:59;100600.28;;;5.77;90.35
52693;BME280;68218;51.012;-1.648;2023-04-21T02:34:24;100600.91;;;5.79;90.29
52693;BME280;68218;51.012;-1.648;2023-04-21T02:36:49;100595.56;;;5.79;90.29
52693;BME280;68218;51.012;-1.648;2023-04-21T02:39:15;100595.19;;;5.76;90.36
52693;BME280;68218;51.012;-1.648;2023-04-21T02:41:40;100593.91;;;5.78;90.58
52693;BME280;68218;51.012;-1.648;2023-04-21T02:44:06;100599.47;;;5.77;90.54
52693;BME280;68218;51.012;-1.648;2023-04-21T02:46:31;100598.16;;;5.86;90.04
52693;BME280;68218;51.012;-1.648;2023-04-21T02:48:56;100585.44;;;5.81;90.37
52693;BME280;68218;51.012;-1.648;2023-04-21T02:51:22;100589.88;;;5.88;90.62
52693;BME280;68218;51.012;-1.648;2023-04-21T02:53:47;100584.78;;;5.86;90.41
52693;BME280;68218;51.012;-1.648;2023-04-21T02:56:13;100580.22;;;5.87;90.51
52693;BME280;68218;51.012;-1.648;2023-04-21T02:58:38;100566.91;;;5.80;90.63
52693;BME280;68218;51.012;-1.648;2023-04-21T03:01:04;100570.84;;;5.77;90.34
52693;BME280;68218;51.012;-1.648;2023-04-21T03:03:30;100574.72;;;5.81;90.65
52693;BME280;68218;51.012;-1.648;2023-04-21T03:06:03;100572.50;;;5.78;90.53
52693;BME280;68218;51.012;-1.648;2023-04-21T03:08:29;100568.00;;;5.72;90.97
52693;BME280;68218;51.012;-1.648;2023-04-21T03:10:55;100558.59;;;5.70;91.07
52693;BME280;68218;51.012;-1.648;2023-04-21T03:13:20;100553.91;;;5.65;91.06
52693;BME280;68218;51.012;-1.648;2023-04-21T03:15:46;100552.06;;;5.66;91.31
52693;BME280;68218;51.012;-1.648;2023-04-21T03:18:12;100544.69;;;5.61;91.32
52693;BME280;68218;51.012;-1.648;2023-04-21T03:20:37;100544.75;;;5.54;91.54
52693;BME280;68218;51.012;-1.648;2023-04-21T03:23:02;100492.78;;;5.25;91.54
52693;BME280;68218;51.012;-1.648;2023-04-21T03:25:28;100530.41;;;5.49;91.64
52693;BME280;68218;51.012;-1.648;2023-04-21T03:27:54;100510.75;;;5.36;91.63
52693;BME280;68218;51.012;-1.648;2023-04-21T03:30:20;100532.25;;;5.48;91.74
52693;BME280;68218;51.012;-1.648;2023-04-21T03:32:45;100526.91;;;5.48;91.86
52693;BME280;68218;51.012;-1.648;2023-04-21T03:35:11;100521.34;;;5.50;91.97
52693;BME280;68218;51.012;-1.648;2023-04-21T03:37:36;100519.09;;;5.47;91.94
52693;BME280;68218;51.012;-1.648;2023-04-21T03:40:02;100514.00;;;5.45;92.17
52693;BME280;68218;51.012;-1.648;2023-04-21T03:42:30;100514.81;;;5.46;92.26
52693;BME280;68218;51.012;-1.648;2023-04-21T03:45:01;100507.44;;;5.41;92.25
52693;BME280;68218;51.012;-1.648;2023-04-21T03:47:26;100504.97;;;5.39;92.39
52693;BME280;68218;51.012;-1.648;2023-04-21T03:49:52;100503.72;;;5.42;92.23
52693;BME280;68218;51.012;-1.648;2023-04-21T03:52:17;100487.69;;;5.42;92.37
52693;BME280;68218;51.012;-1.648;2023-04-21T03:54:42;100486.78;;;5.48;92.33
52693;BME280;68218;51.012;-1.648;2023-04-21T03:57:08;100486.72;;;5.55;92.36
52693;BME280;68218;51.012;-1.648;2023-04-21T03:59:33;100482.34;;;5.60;92.27
52693;BME280;68218;51.012;-1.648;2023-04-21T04:01:59;100484.78;;;5.62;91.99
52693;BME280;68218;51.012;-1.648;2023-04-21T04:04:24;100484.31;;;5.65;91.83
52693;BME280;68218;51.012;-1.648;2023-04-21T04:06:49;100481.78;;;5.70;92.08
52693;BME280;68218;51.012;-1.648;2023-04-21T04:09:15;100473.78;;;5.70;91.70
52693;BME280;68218;51.012;-1.648;2023-04-21T04:11:41;100469.75;;;5.79;91.64
52693;BME280;68218;51.012;-1.648;2023-04-21T04:14:06;100468.13;;;5.78;91.52
52693;BME280;68218;51.012;-1.648;2023-04-21T04:16:33;100473.97;;;5.87;91.37
52693;BME280;68218;51.012;-1.648;2023-04-21T04:18:58;100466.41;;;5.84;91.20
52693;BME280;68218;51.012;-1.648;2023-04-21T04:21:24;100454.88;;;5.84;91.22
52693;BME280;68218;51.012;-1.648;2023-04-21T04:23:51;100466.75;;;5.88;91.28
52693;BME280;68218;51.012;-1.648;2023-04-21T04:26:17;100458.88;;;5.93;91.00
52693;BME280;68218;51.012;-1.648;2023-04-21T04:28:43;100445.59;;;5.86;91.41
52693;BME280;68218;51.012;-1.648;2023-04-21T04:31:09;100447.00;;;5.89;91.26
52693;BME280;68218;51.012;-1.648;2023-04-21T04:33:34;100441.50;;;5.84;91.26
52693;BME280;68218;51.012;-1.648;2023-04-21T04:36:00;100437.66;;;5.79;91.16
52693;BME280;68218;51.012;-1.648;2023-04-21T04:38:26;100445.59;;;5.86;91.28
52693;BME280;68218;51.012;-1.648;2023-04-21T04:40:55;100438.69;;;5.78;90.76
52693;BME280;68218;51.012;-1.648;2023-04-21T04:43:23;100436.00;;;5.78;91.18
52693;BME280;68218;51.012;-1.648;2023-04-21T04:45:49;100438.91;;;5.77;91.00
52693;BME280;68218;51.012;-1.648;2023-04-21T04:48:14;100447.38;;;5.74;90.89
52693;BME280;68218;51.012;-1.648;2023-04-21T04:50:40;100439.13;;;5.75;90.81
52693;BME280;68218;51.012;-1.648;2023-04-21T04:53:06;100436.00;;;5.78;90.80
52693;BME280;68218;51.012;-1.648;2023-04-21T04:55:31;100439.00;;;5.70;90.70
52693;BME280;68218;51.012;-1.648;2023-04-21T04:57:57;100428.06;;;5.72;90.87
52693;BME280;68218;51.012;-1.648;2023-04-21T05:00:22;100435.88;;;5.73;90.98
52693;BME280;68218;51.012;-1.648;2023-04-21T05:02:48;100430.59;;;5.67;91.04
52693;BME280;68218;51.012;-1.648;2023-04-21T05:05:13;100425.25;;;5.67;91.09
52693;BME280;68218;51.012;-1.648;2023-04-21T05:07:39;100425.47;;;5.65;90.88
52693;BME280;68218;51.012;-1.648;2023-04-21T05:10:05;100422.44;;;5.61;90.89
52693;BME280;68218;51.012;-1.648;2023-04-21T05:12:30;100426.25;;;5.54;91.25
52693;BME280;68218;51.012;-1.648;2023-04-21T05:14:58;100421.78;;;5.48;91.57
52693;BME280;68218;51.012;-1.648;2023-04-21T05:17:24;100416.88;;;5.44;91.65
52693;BME280;68218;51.012;-1.648;2023-04-21T05:19:49;100418.38;;;5.40;91.74
52693;BME280;68218;51.012;-1.648;2023-04-21T05:22:15;100417.78;;;5.38;91.99
52693;BME280;68218;51.012;-1.648;2023-04-21T05:24:41;100417.41;;;5.35;91.55
52693;BME280;68218;51.012;-1.648;2023-04-21T05:27:07;100425.34;;;5.41;91.61
52693;BME280;68218;51.012;-1.648;2023-04-21T05:29:32;100436.28;;;5.40;91.39
52693;BME280;68218;51.012;-1.648;2023-04-21T05:31:58;100432.19;;;5.37;91.52
52693;BME280;68218;51.012;-1.648;2023-04-21T05:34:24;100430.09;;;5.39;91.33
52693;BME280;68218;51.012;-1.648;2023-04-21T05:36:50;100424.16;;;5.37;91.13
52693;BME280;68218;51.012;-1.648;2023-04-21T05:39:16;100414.88;;;5.40;91.48
52693;BME280;68218;51.012;-1.648;2023-04-21T05:41:42;100413.81;;;5.41;90.78
52693;BME280;68218;51.012;-1.648;2023-04-21T05:44:07;100407.09;;;5.38;90.83
52693;BME280;68218;51.012;-1.648;2023-04-21T05:46:33;100410.25;;;5.47;90.33
52693;BME280;68218;51.012;-1.648;2023-04-21T05:48:59;100420.28;;;5.52;90.21
52693;BME280;68218;51.012;-1.648;2023-04-21T05:51:26;100411.66;;;5.50;90.15
52693;BME280;68218;51.012;-1.648;2023-04-21T05:53:52;100408.53;;;5.53;89.88
52693;BME280;68218;51.012;-1.648;2023-04-21T05:56:17;100404.13;;;5.58;89.62
52693;BME280;68218;51.012;-1.648;2023-04-21T05:58:43;100415.06;;;5.57;88.85
52693;BME280;68218;51.012;-1.648;2023-04-21T06:01:08;100410.91;;;5.61;89.30
52693;BME280;68218;51.012;-1.648;2023-04-21T06:03:34;100410.78;;;5.56;89.17
52693;BME280;68218;51.012;-1.648;2023-04-21T06:06:01;100421.25;;;5.57;89.26
52693;BME280;68218;51.012;-1.648;2023-04-21T06:08:27;100421.63;;;5.61;89.15
52693;BME280;68218;51.012;-1.648;2023-04-21T06:10:53;100412.00;;;5.72;89.40
52693;BME280;68218;51.012;-1.648;2023-04-21T06:13:18;100403.47;;;5.63;89.57
52693;BME280;68218;51.012;-1.648;2023-04-21T06:15:43;100408.53;;;5.71;89.59
52693;BME280;68218;51.012;-1.648;2023-04-21T06:18:09;100412.38;;;5.75;89.12
52693;BME280;68218;51.012;-1.648;2023-04-21T06:20:34;100413.19;;;5.76;88.77
52693;BME280;68218;51.012;-1.648;2023-04-21T06:23:00;100410.06;;;5.79;88.56
52693;BME280;68218;51.012;-1.648;2023-04-21T06:25:25;100413.94;;;5.83;88.40
52693;BME280;68218;51.012;-1.648;2023-04-21T06:27:51;100404.69;;;5.79;87.92
52693;BME280;68218;51.012;-1.648;2023-04-21T06:30:16;100409.28;;;5.90;88.02
52693;BME280;68218;51.012;-1.648;2023-04-21T06:32:42;100406.34;;;5.98;87.76
52693;BME280;68218;51.012;-1.648;2023-04-21T06:35:10;100404.31;;;5.94;87.58
52693;BME280;68218;51.012;-1.648;2023-04-21T06:37:36;100395.19;;;6.13;87.59
52693;BME280;68218;51.012;-1.648;2023-04-21T06:40:02;100391.66;;;6.01;86.86
52693;BME280;68218;51.012;-1.648;2023-04-21T06:42:27;100386.88;;;6.03;87.37
52693;BME280;68218;51.012;-1.648;2023-04-21T06:44:52;100383.06;;;5.99;86.81
52693;BME280;68218;51.012;-1.648;2023-04-21T06:47:18;100378.41;;;6.06;87.37
52693;BME280;68218;51.012;-1.648;2023-04-21T06:49:43;100378.09;;;6.14;86.82
52693;BME280;68218;51.012;-1.648;2023-04-21T06:52:09;100383.78;;;6.18;86.22
52693;BME280;68218;51.012;-1.648;2023-04-21T06:54:35;100378.00;;;6.33;85.74
52693;BME280;68218;51.012;-1.648;2023-04-21T06:57:01;100371.25;;;6.42;85.75
52693;BME280;68218;51.012;-1.648;2023-04-21T06:59:26;100375.31;;;6.33;84.73
52693;BME280;68218;51.012;-1.648;2023-04-21T07:01:51;100371.81;;;6.44;84.76
52693;BME280;68218;51.012;-1.648;2023-04-21T07:04:18;100368.81;;;6.64;84.45
52693;BME280;68218;51.012;-1.648;2023-04-21T07:06:43;100365.44;;;7.04;83.24
52693;BME280;68218;51.012;-1.648;2023-04-21T07:09:09;100366.09;;;7.11;82.19
52693;BME280;68218;51.012;-1.648;2023-04-21T07:11:34;100373.03;;;6.84;81.58
52693;BME280;68218;51.012;-1.648;2023-04-21T07:13:59;100363.09;;;7.08;83.42
52693;BME280;68218;51.012;-1.648;2023-04-21T07:16:27;100362.53;;;6.94;82.12
52693;BME280;68218;51.012;-1.648;2023-04-21T07:18:52;100357.97;;;6.94;81.75
52693;BME280;68218;51.012;-1.648;2023-04-21T07:21:17;100354.31;;;7.01;82.77
52693;BME280;68218;51.012;-1.648;2023-04-21T07:23:43;100352.97;;;6.86;81.81
52693;BME280;68218;51.012;-1.648;2023-04-21T07:26:08;100353.16;;;7.08;82.09
52693;BME280;68218;51.012;-1.648;2023-04-21T07:28:33;100344.84;;;7.22;82.31
52693;BME280;68218;51.012;-1.648;2023-04-21T07:30:59;100341.03;;;7.06;81.82
52693;BME280;68218;51.012;-1.648;2023-04-21T07:33:24;100345.25;;;7.02;81.59
52693;BME280;68218;51.012;-1.648;2023-04-21T07:35:50;100347.22;;;7.06;81.61
52693;BME280;68218;51.012;-1.648;2023-04-21T07:38:15;100348.25;;;7.17;82.32
52693;BME280;68218;51.012;-1.648;2023-04-21T07:40:41;100336.94;;;7.15;81.04
52693;BME280;68218;51.012;-1.648;2023-04-21T07:43:06;100334.28;;;7.03;81.89
52693;BME280;68218;51.012;-1.648;2023-04-21T07:45:31;100326.91;;;7.10;81.57
52693;BME280;68218;51.012;-1.648;2023-04-21T07:47:57;100321.41;;;7.17;81.52
52693;BME280;68218;51.012;-1.648;2023-04-21T07:50:23;100314.16;;;7.29;80.68
52693;BME280;68218;51.012;-1.648;2023-04-21T07:52:49;100323.47;;;7.39;80.32
52693;BME280;68218;51.012;-1.648;2023-04-21T07:55:14;100313.19;;;7.64;80.12
52693;BME280;68218;51.012;-1.648;2023-04-21T07:57:40;100317.59;;;7.71;79.78
52693;BME280;68218;51.012;-1.648;2023-04-21T08:00:05;100308.59;;;8.11;78.78
52693;BME280;68218;51.012;-1.648;2023-04-21T08:02:31;100311.03;;;8.12;78.27
52693;BME280;68218;51.012;-1.648;2023-04-21T08:04:58;100309.81;;;8.03;77.49
52693;BME280;68218;51.012;-1.648;2023-04-21T08:07:23;100306.66;;;8.23;78.12
52693;BME280;68218;51.012;-1.648;2023-04-21T08:09:48;100300.03;;;8.14;78.44
52693;BME280;68218;51.012;-1.648;2023-04-21T08:12:13;100302.00;;;8.35;78.22
52693;BME280;68218;51.012;-1.648;2023-04-21T08:14:39;100297.28;;;8.09;78.81
52693;BME280;68218;51.012;-1.648;2023-04-21T08:17:04;100303.72;;;8.07;78.07
52693;BME280;68218;51.012;-1.648;2023-04-21T08:19:30;100292.66;;;8.21;78.54
52693;BME280;68218;51.012;-1.648;2023-04-21T08:21:55;100305.50;;;8.19;78.71
52693;BME280;68218;51.012;-1.648;2023-04-21T08:24:21;100297.03;;;8.10;78.30
52693;BME280;68218;51.012;-1.648;2023-04-21T08:26:47;100296.28;;;7.81;78.85
52693;BME280;68218;51.012;-1.648;2023-04-21T08:29:12;100298.81;;;7.87;78.87
52693;BME280;68218;51.012;-1.648;2023-04-21T08:31:38;100293.06;;;8.13;79.45
52693;BME280;68218;51.012;-1.648;2023-04-21T08:34:03;100297.53;;;7.90;79.75
52693;BME280;68218;51.012;-1.648;2023-04-21T08:36:28;100297.59;;;7.78;79.59
52693;BME280;68218;51.012;-1.648;2023-04-21T08:38:54;100291.63;;;7.59;80.14
52693;BME280;68218;51.012;-1.648;2023-04-21T08:41:20;100281.94;;;7.58;80.67
52693;BME280;68218;51.012;-1.648;2023-04-21T08:43:46;100281.56;;;7.66;81.00
52693;BME280;68218;51.012;-1.648;2023-04-21T08:46:11;100283.75;;;7.69;81.18
52693;BME280;68218;51.012;-1.648;2023-04-21T08:48:37;100290.59;;;7.77;80.99
52693;BME280;68218;51.012;-1.648;2023-04-21T08:51:05;100280.84;;;7.71;81.35
52693;BME280;68218;51.012;-1.648;2023-04-21T08:53:31;100286.19;;;7.54;81.58
52693;BME280;68218;51.012;-1.648;2023-04-21T08:55:56;100280.50;;;7.67;81.19
52693;BME280;68218;51.012;-1.648;2023-04-21T08:58:22;100277.41;;;7.76;81.39
52693;BME280;68218;51.012;-1.648;2023-04-21T09:00:48;100276.06;;;7.90;81.93
52693;BME280;68218;51.012;-1.648;2023-04-21T09:03:20;100278.91;;;8.00;80.23
52693;BME280;68218;51.012;-1.648;2023-04-21T09:06:00;100287.94;;;8.11;81.74
52693;BME280;68218;51.012;-1.648;2023-04-21T09:08:26;100288.31;;;8.03;80.25
52693;BME280;68218;51.012;-1.648;2023-04-21T09:10:54;100280.50;;;8.01;80.28
52693;BME280;68218;51.012;-1.648;2023-04-21T09:13:20;100274.00;;;7.97;81.31
52693;BME280;68218;51.012;-1.648;2023-04-21T09:15:49;100277.19;;;7.94;80.76
52693;BME280;68218;51.012;-1.648;2023-04-21T09:18:17;100274.56;;;8.16;80.58
52693;BME280;68218;51.012;-1.648;2023-04-21T09:20:44;100266.13;;;8.07;81.41
52693;BME280;68218;51.012;-1.648;2023-04-21T09:23:11;100271.97;;;8.21;80.47
52693;BME280;68218;51.012;-1.648;2023-04-21T09:25:44;100273.09;;;8.42;79.86
52693;BME280;68218;51.012;-1.648;2023-04-21T09:28:11;100258.38;;;8.28;79.81
52693;BME280;68218;51.012;-1.648;2023-04-21T09:30:38;100270.78;;;8.34;79.74
52693;BME280;68218;51.012;-1.648;2023-04-21T09:33:04;100270.78;;;8.34;80.70
52693;BME280;68218;51.012;-1.648;2023-04-21T09:35:33;100270.63;;;8.41;80.26
52693;BME280;68218;51.012;-1.648;2023-04-21T09:38:00;100263.88;;;8.38;79.97
52693;BME280;68218;51.012;-1.648;2023-04-21T09:40:27;100265.75;;;8.38;79.06
52693;BME280;68218;51.012;-1.648;2023-04-21T09:42:53;100259.72;;;8.48;79.63
52693;BME280;68218;51.012;-1.648;2023-04-21T09:45:19;100263.31;;;8.36;78.58
52693;BME280;68218;51.012;-1.648;2023-04-21T09:47:48;100262.41;;;8.48;79.09
52693;BME280;68218;51.012;-1.648;2023-04-21T09:50:15;100256.88;;;8.54;79.20
52693;BME280;68218;51.012;-1.648;2023-04-21T09:52:42;100260.63;;;8.75;78.63
52693;BME280;68218;51.012;-1.648;2023-04-21T09:55:11;100257.19;;;8.58;78.73
52693;BME280;68218;51.012;-1.648;2023-04-21T09:57:39;100252.94;;;8.84;79.66
52693;BME280;68218;51.012;-1.648;2023-04-21T10:00:07;100257.19;;;9.02;78.77
52693;BME280;68218;51.012;-1.648;2023-04-21T10:02:35;100254.38;;;8.92;78.35
52693;BME280;68218;51.012;-1.648;2023-04-21T10:05:03;100244.69;;;8.69;77.10
52693;BME280;68218;51.012;-1.648;2023-04-21T10:07:30;100251.63;;;8.87;78.33
52693;BME280;68218;51.012;-1.648;2023-04-21T10:09:57;100246.25;;;8.87;78.41
52693;BME280;68218;51.012;-1.648;2023-04-21T10:12:24;100247.38;;;8.69;79.25
52693;BME280;68218;51.012;-1.648;2023-04-21T10:14:51;100254.69;;;8.73;79.70
52693;BME280;68218;51.012;-1.648;2023-04-21T10:17:24;100244.56;;;8.80;79.26
52693;BME280;68218;51.012;-1.648;2023-04-21T10:19:51;100241.97;;;8.69;79.39
52693;BME280;68218;51.012;-1.648;2023-04-21T10:22:34;100247.50;;;8.57;78.87
52693;BME280;68218;51.012;-1.648;2023-04-21T10:25:00;100240.84;;;8.42;79.70
52693;BME280;68218;51.012;-1.648;2023-04-21T10:27:31;100215.44;;;8.33;79.27
52693;BME280;68218;51.012;-1.648;2023-04-21T10:29:57;100231.63;;;8.38;80.11
52693;BME280;68218;51.012;-1.648;2023-04-21T10:32:42;100227.28;;;8.15;81.31
52693;BME280;68218;51.012;-1.648;2023-04-21T10:35:11;100222.31;;;8.07;81.66
52693;BME280;68218;51.012;-1.648;2023-04-21T10:37:39;100229.50;;;8.01;82.46
52693;BME280;68218;51.012;-1.648;2023-04-21T10:40:07;100224.53;;;7.93;83.46
52693;BME280;68218;51.012;-1.648;2023-04-21T10:42:51;100224.03;;;8.13;83.72
52693;BME280;68218;51.012;-1.648;2023-04-21T10:45:17;100217.94;;;8.01;83.10
52693;BME280;68218;51.012;-1.648;2023-04-21T10:47:47;100215.00;;;8.19;82.92
52693;BME280;68218;51.012;-1.648;2023-04-21T10:50:19;100213.09;;;8.20;80.92
52693;BME280;68218;51.012;-1.648;2023-04-21T10:52:50;100215.69;;;8.32;80.01
52693;BME280;68218;51.012;-1.648;2023-04-21T10:55:17;100214.41;;;8.56;79.98
52693;BME280;68218;51.012;-1.648;2023-04-21T10:57:43;100222.13;;;8.70;79.77
52693;BME280;68218;51.012;-1.648;2023-04-21T11:00:11;100214.66;;;8.55;79.03
52693;BME280;68218;51.012;-1.648;2023-04-21T11:02:36;100220.28;;;8.53;79.82
52693;BME280;68218;51.012;-1.648;2023-04-21T11:05:04;100215.75;;;8.54;83.28
52693;BME280;68218;51.012;-1.648;2023-04-21T11:07:30;100217.56;;;8.31;79.97
52693;BME280;68218;51.012;-1.648;2023-04-21T11:09:56;100207.94;;;7.96;81.30
52693;BME280;68218;51.012;-1.648;2023-04-21T11:12:26;100213.91;;;7.64;80.79
52693;BME280;68218;51.012;-1.648;2023-04-21T11:14:52;100206.47;;;7.38;81.64
52693;BME280;68218;51.012;-1.648;2023-04-21T11:17:18;100205.75;;;7.59;84.29
52693;BME280;68218;51.012;-1.648;2023-04-21T11:19:52;100204.13;;;7.58;84.12
52693;BME280;68218;51.012;-1.648;2023-04-21T11:22:18;100206.63;;;7.48;84.83
52693;BME280;68218;51.012;-1.648;2023-04-21T11:24:46;100207.69;;;7.47;84.77
52693;BME280;68218;51.012;-1.648;2023-04-21T11:27:12;100205.97;;;7.41;85.50
52693;BME280;68218;51.012;-1.648;2023-04-21T11:29:43;100200.69;;;7.29;84.38
52693;BME280;68218;51.012;-1.648;2023-04-21T11:32:10;100211.56;;;7.22;86.30
52693;BME280;68218;51.012;-1.648;2023-04-21T11:34:36;100211.50;;;7.05;85.86
52693;BME280;68218;51.012;-1.648;2023-04-21T11:37:01;100198.97;;;6.94;85.87
52693;BME280;68218;51.012;-1.648;2023-04-21T11:39:27;100215.69;;;7.13;87.51
52693;BME280;68218;51.012;-1.648;2023-04-21T11:41:52;100209.81;;;7.16;88.40
52693;BME280;68218;51.012;-1.648;2023-04-21T11:44:38;100210.69;;;7.05;86.46
52693;BME280;68218;51.012;-1.648;2023-04-21T11:47:14;100225.88;;;6.99;86.36
52693;BME280;68218;51.012;-1.648;2023-04-21T11:49:54;100216.16;;;6.81;87.92
52693;BME280;68218;51.012;-1.648;2023-04-21T11:52:34;100219.28;;;6.37;86.59
52693;BME280;68218;51.012;-1.648;2023-04-21T11:55:19;100225.69;;;6.36;87.64
52693;BME280;68218;51.012;-1.648;2023-04-21T11:57:44;100227.09;;;6.27;89.02
52693;BME280;68218;51.012;-1.648;2023-04-21T12:00:10;100224.41;;;6.04;87.90
52693;BME280;68218;51.012;-1.648;2023-04-21T12:02:38;100223.59;;;6.15;90.63
52693;BME280;68218;51.012;-1.648;2023-04-21T12:05:07;100232.09;;;6.00;90.54
52693;BME280;68218;51.012;-1.648;2023-04-21T12:07:35;100238.69;;;5.86;91.28
52693;BME280;68218;51.012;-1.648;2023-04-21T12:10:01;100232.28;;;5.75;91.60
52693;BME280;68218;51.012;-1.648;2023-04-21T12:12:28;100224.34;;;5.68;89.22
52693;BME280;68218;51.012;-1.648;2023-04-21T12:14:53;100229.38;;;5.76;87.62
52693;BME280;68218;51.012;-1.648;2023-04-21T12:17:19;100234.81;;;5.70;91.02
52693;BME280;68218;51.012;-1.648;2023-04-21T12:19:45;100232.69;;;5.60;92.34
52693;BME280;68218;51.012;-1.648;2023-04-21T12:22:12;100226.09;;;5.62;90.13
52693;BME280;68218;51.012;-1.648;2023-04-21T12:24:39;100229.25;;;5.71;90.64
52693;BME280;68218;51.012;-1.648;2023-04-21T12:27:05;100222.50;;;5.80;90.99
52693;BME280;68218;51.012;-1.648;2023-04-21T12:29:31;100231.09;;;5.82;90.34
52693;BME280;68218;51.012;-1.648;2023-04-21T12:32:00;100227.84;;;5.80;90.35
52693;BME280;68218;51.012;-1.648;2023-04-21T12:34:25;100232.53;;;5.85;91.27
52693;BME280;68218;51.012;-1.648;2023-04-21T12:36:51;100226.00;;;5.93;91.77
52693;BME280;68218;51.012;-1.648;2023-04-21T12:39:16;100229.16;;;5.90;91.08
52693;BME280;68218;51.012;-1.648;2023-04-21T12:41:43;100223.94;;;5.95;91.39
52693;BME280;68218;51.012;-1.648;2023-04-21T12:44:08;100218.94;;;6.22;93.94
52693;BME280;68218;51.012;-1.648;2023-04-21T12:46:33;100229.78;;;6.27;93.41